createdAt,value
2023-01-08T00:01:17.014Z,24.87
2023-01-08T00:03:44.232Z,25.10
2023-01-08T00:06:14.169Z,24.00
2023-01-08T00:08:41.534Z,23.57
2023-01-08T00:11:08.642Z,24.47
2023-01-08T00:13:35.697Z,24.97
2023-01-08T00:16:08.098Z,23.33
2023-01-08T00:18:35.038Z,24.27
2023-01-08T00:21:05.206Z,23.97
2023-01-08T00:23:33.166Z,23.37
2023-01-08T00:26:05.327Z,23.53
2023-01-08T00:28:32.418Z,23.27
2023-01-08T00:31:00.304Z,23.23
2023-01-08T00:33:28.422Z,22.90
2023-01-08T00:35:55.240Z,23.00
2023-01-08T00:38:26.857Z,23.97
2023-01-08T00:40:57.353Z,22.50
2023-01-08T00:43:24.279Z,23.57
2023-01-08T00:45:54.173Z,22.70
2023-01-08T00:48:25.219Z,21.87
2023-01-08T00:50:53.609Z,21.37
2023-01-08T00:53:21.609Z,21.73
2023-01-08T00:55:48.602Z,22.67
2023-01-08T00:58:15.695Z,22.80
2023-01-08T01:00:42.755Z,21.20
2023-01-08T01:03:12.164Z,21.53
2023-01-08T01:05:39.101Z,20.50
2023-01-08T01:08:06.078Z,21.07
2023-01-08T01:10:33.001Z,22.60
2023-01-08T01:12:59.842Z,21.00
2023-01-08T01:15:26.823Z,21.40
2023-01-08T01:17:53.723Z,20.90
2023-01-08T01:20:20.800Z,21.20
2023-01-08T01:22:47.791Z,22.17
2023-01-08T01:25:14.823Z,21.60
2023-01-08T01:27:41.871Z,21.93
2023-01-08T01:30:09.717Z,21.30
2023-01-08T01:32:36.778Z,21.47
2023-01-08T01:35:03.973Z,21.27
2023-01-08T01:37:30.943Z,21.17
2023-01-08T01:39:58.121Z,21.93
2023-01-08T01:42:40.479Z,21.40
2023-01-08T01:45:27.931Z,20.47
2023-01-08T01:47:59.788Z,21.43
2023-01-08T01:50:33.247Z,21.50
2023-01-08T01:53:00.102Z,21.30
2023-01-08T01:55:27.983Z,21.40
2023-01-08T01:58:08.073Z,21.20
2023-01-08T02:00:35.860Z,21.00
2023-01-08T02:03:05.241Z,22.20
2023-01-08T02:05:43.969Z,21.90
2023-01-08T02:08:15.276Z,22.20
2023-01-08T02:10:58.506Z,20.70
2023-01-08T02:13:33.469Z,19.60
2023-01-08T02:16:00.300Z,19.30
2023-01-08T02:18:34.784Z,19.70
2023-01-08T02:21:10.384Z,20.13
2023-01-08T02:23:58.654Z,19.60
2023-01-08T02:26:35.140Z,20.03
2023-01-08T02:29:09.982Z,18.80
2023-01-08T02:31:39.963Z,18.23
2023-01-08T02:34:07.240Z,17.33
2023-01-08T02:36:35.773Z,16.57
2023-01-08T02:39:35.423Z,15.67
2023-01-08T02:42:11.503Z,14.60
2023-01-08T02:45:15.870Z,14.27
2023-01-08T02:47:59.229Z,14.43
2023-01-08T02:50:49.259Z,14.10
2023-01-08T02:53:23.395Z,13.80
2023-01-08T02:55:54.208Z,13.63
2023-01-08T02:58:23.472Z,12.80
2023-01-08T03:00:51.605Z,12.80
2023-01-08T03:03:27.592Z,13.33
2023-01-08T03:05:58.928Z,13.33
2023-01-08T03:08:27.102Z,13.13
2023-01-08T03:11:00.002Z,12.47
2023-01-08T03:13:41.936Z,13.10
2023-01-08T03:16:18.091Z,12.57
2023-01-08T03:19:03.009Z,12.83
2023-01-08T03:21:31.334Z,12.47
2023-01-08T03:23:58.798Z,12.33
2023-01-08T03:26:27.375Z,12.63
2023-01-08T03:28:56.585Z,11.63
2023-01-08T03:31:25.931Z,12.60
2023-01-08T03:33:53.909Z,11.37
2023-01-08T03:36:25.050Z,11.93
2023-01-08T03:38:59.415Z,12.23
2023-01-08T03:41:29.765Z,12.53
2023-01-08T03:43:57.138Z,12.70
2023-01-08T03:46:30.704Z,12.00
2023-01-08T03:48:59.839Z,12.43
2023-01-08T03:51:27.338Z,12.40
2023-01-08T03:53:58.797Z,12.23
2023-01-08T03:56:26.096Z,12.60
2023-01-08T03:58:53.022Z,12.27
2023-01-08T04:01:20.028Z,12.40
2023-01-08T04:03:47.423Z,12.57
2023-01-08T04:06:14.247Z,12.33
2023-01-08T04:08:41.154Z,12.20
2023-01-08T04:11:08.165Z,11.63
2023-01-08T04:13:35.084Z,11.63
2023-01-08T04:16:02.020Z,11.50
2023-01-08T04:18:28.985Z,11.03
2023-01-08T04:20:57.785Z,11.60
2023-01-08T04:23:24.765Z,10.87
2023-01-08T04:25:51.948Z,10.30
2023-01-08T04:28:19.408Z,10.60
2023-01-08T04:30:46.245Z,10.60
2023-01-08T04:33:13.435Z,11.03
2023-01-08T04:35:40.358Z,11.07
2023-01-08T04:38:07.268Z,10.70
2023-01-08T04:40:34.825Z,11.83
2023-01-08T04:43:01.725Z,11.30
2023-01-08T04:45:28.605Z,11.77
2023-01-08T04:48:00.719Z,11.43
2023-01-08T04:50:27.908Z,11.77
2023-01-08T04:52:54.832Z,11.33
2023-01-08T04:55:21.818Z,11.27
2023-01-08T04:57:48.737Z,11.47
2023-01-08T05:00:16.076Z,11.57
2023-01-08T05:02:43.137Z,11.50
2023-01-08T05:05:10.312Z,10.50
2023-01-08T05:07:37.198Z,9.83
2023-01-08T05:10:05.172Z,9.70
2023-01-08T05:12:32.128Z,10.20
2023-01-08T05:14:58.997Z,10.57
2023-01-08T05:17:25.889Z,9.97
2023-01-08T05:19:52.763Z,9.30
2023-01-08T05:22:19.634Z,9.70
2023-01-08T05:24:46.519Z,9.50
2023-01-08T05:27:13.461Z,9.63
2023-01-08T05:29:40.281Z,9.43
2023-01-08T05:32:15.779Z,9.63
2023-01-08T05:34:43.482Z,8.50
2023-01-08T05:37:10.544Z,9.93
2023-01-08T05:39:38.003Z,9.57
2023-01-08T05:42:05.078Z,8.90
2023-01-08T05:44:31.935Z,9.43
2023-01-08T05:46:58.849Z,8.77
2023-01-08T05:49:25.822Z,9.53
2023-01-08T05:51:52.675Z,9.03
2023-01-08T05:54:19.553Z,9.90
2023-01-08T05:56:46.430Z,8.90
2023-01-08T05:59:14.372Z,8.90
2023-01-08T06:01:41.353Z,9.30
2023-01-08T06:04:08.586Z,9.23
2023-01-08T06:06:35.896Z,9.10
2023-01-08T06:09:02.801Z,9.27
2023-01-08T06:11:29.628Z,9.27
2023-01-08T06:13:56.655Z,10.27
2023-01-08T06:16:23.597Z,9.13
2023-01-08T06:18:50.524Z,9.53
2023-01-08T06:21:17.480Z,9.60
2023-01-08T06:23:44.408Z,9.87
2023-01-08T06:26:11.350Z,9.53
2023-01-08T06:28:38.176Z,9.47
2023-01-08T06:31:05.266Z,9.73
2023-01-08T06:33:32.567Z,9.87
2023-01-08T06:36:04.628Z,8.83
2023-01-08T06:38:33.542Z,8.40
2023-01-08T06:41:05.030Z,8.60
2023-01-08T06:43:33.077Z,8.20
2023-01-08T06:46:09.540Z,9.67
2023-01-08T06:48:37.172Z,8.03
2023-01-08T06:51:05.284Z,9.00
2023-01-08T06:53:32.626Z,8.57
2023-01-08T06:55:59.756Z,8.87
2023-01-08T06:58:27.719Z,8.60
2023-01-08T07:00:54.889Z,8.20
2023-01-08T07:03:21.990Z,8.53
2023-01-08T07:05:50.776Z,8.50
2023-01-08T07:08:18.558Z,8.97
2023-01-08T07:10:45.880Z,8.83
2023-01-08T07:13:13.206Z,8.90
2023-01-08T07:15:40.907Z,9.00
2023-01-08T07:18:12.264Z,9.27
2023-01-08T07:20:39.506Z,8.73
2023-01-08T07:23:09.783Z,9.07
2023-01-08T07:25:36.787Z,9.20
2023-01-08T07:28:03.677Z,9.90
2023-01-08T07:30:30.935Z,9.67
2023-01-08T07:33:01.954Z,9.53
2023-01-08T07:35:29.485Z,9.30
2023-01-08T07:37:56.807Z,9.87
2023-01-08T07:40:24.254Z,9.53
2023-01-08T07:43:01.481Z,9.53
2023-01-08T07:45:29.697Z,9.83
2023-01-08T07:48:00.185Z,9.23
2023-01-08T07:50:27.956Z,10.07
2023-01-08T07:52:58.666Z,9.70
2023-01-08T07:55:25.621Z,9.63
2023-01-08T07:57:52.525Z,9.77
2023-01-08T08:00:19.709Z,9.27
2023-01-08T08:02:46.851Z,9.63
2023-01-08T08:05:14.098Z,9.30
2023-01-08T08:07:41.028Z,9.37
2023-01-08T08:10:08.525Z,9.47
2023-01-08T08:12:35.441Z,8.53
2023-01-08T08:15:02.512Z,9.60
2023-01-08T08:17:29.427Z,9.97
2023-01-08T08:19:56.353Z,9.40
2023-01-08T08:22:23.239Z,9.90
2023-01-08T08:24:50.101Z,10.03
2023-01-08T08:27:17.090Z,9.60
2023-01-08T08:29:44.037Z,10.20
2023-01-08T08:32:10.943Z,9.50
2023-01-08T08:34:37.897Z,9.87
2023-01-08T08:37:04.826Z,9.73
2023-01-08T08:39:31.760Z,9.57
2023-01-08T08:41:58.736Z,9.80
2023-01-08T08:44:25.636Z,9.90
2023-01-08T08:46:52.644Z,9.73
2023-01-08T08:49:19.724Z,9.90
2023-01-08T08:51:46.750Z,9.77
2023-01-08T08:54:16.576Z,9.37
2023-01-08T08:56:43.450Z,9.90
2023-01-08T08:59:13.353Z,9.87
2023-01-08T09:01:42.575Z,9.53
2023-01-08T09:04:09.552Z,9.83
2023-01-08T09:06:36.564Z,10.17
2023-01-08T09:09:03.785Z,10.93
2023-01-08T09:11:31.941Z,9.67
2023-01-08T09:13:59.069Z,10.20
2023-01-08T09:16:26.067Z,10.17
2023-01-08T09:18:53.124Z,10.70
2023-01-08T09:21:20.024Z,10.20
2023-01-08T09:23:49.342Z,10.67
2023-01-08T09:26:16.363Z,10.40
2023-01-08T09:28:43.522Z,10.57
2023-01-08T09:31:10.564Z,9.77
2023-01-08T09:33:37.569Z,9.87
2023-01-08T09:36:04.697Z,9.77
2023-01-08T09:38:31.628Z,9.47
2023-01-08T09:41:06.251Z,9.37
2023-01-08T09:43:36.569Z,10.13
2023-01-08T09:46:06.213Z,9.73
2023-01-08T09:48:39.293Z,9.73
2023-01-08T09:51:14.407Z,9.63
2023-01-08T09:53:43.293Z,9.63
2023-01-08T09:56:18.565Z,9.20
2023-01-08T09:58:53.071Z,9.97
2023-01-08T10:01:41.263Z,10.40
2023-01-08T10:04:14.587Z,9.47
2023-01-08T10:06:46.964Z,9.53
2023-01-08T10:09:15.188Z,9.60
2023-01-08T10:11:50.748Z,9.80
2023-01-08T10:14:25.600Z,10.13
2023-01-08T10:17:14.812Z,10.67
2023-01-08T10:19:41.834Z,9.73
2023-01-08T10:22:32.934Z,9.90
2023-01-08T10:25:09.994Z,10.37
2023-01-08T10:27:50.129Z,10.43
2023-01-08T10:30:21.062Z,10.10
2023-01-08T10:32:56.209Z,10.03
2023-01-08T10:35:33.278Z,10.50
2023-01-08T10:38:00.264Z,11.17
2023-01-08T10:40:31.537Z,11.17
2023-01-08T10:43:06.637Z,10.80
2023-01-08T10:45:34.162Z,11.33
2023-01-08T10:48:04.949Z,10.87
2023-01-08T10:50:33.862Z,10.77
2023-01-08T10:53:05.759Z,11.60
2023-01-08T10:55:37.555Z,11.57
2023-01-08T10:58:10.659Z,11.30
2023-01-08T11:00:37.992Z,11.87
2023-01-08T11:03:07.773Z,11.80
2023-01-08T11:05:43.129Z,11.80
2023-01-08T11:08:19.512Z,11.67
2023-01-08T11:10:56.597Z,12.03
2023-01-08T11:13:24.359Z,12.13
2023-01-08T11:16:13.001Z,12.50
2023-01-08T11:18:48.714Z,12.23
2023-01-08T11:21:26.271Z,12.60
2023-01-08T11:24:12.839Z,12.90
2023-01-08T11:26:43.652Z,12.50
2023-01-08T11:29:23.506Z,13.23
2023-01-08T11:32:04.939Z,13.00
2023-01-08T11:35:01.038Z,13.13
2023-01-08T11:37:32.006Z,13.07
2023-01-08T11:39:59.105Z,13.60
2023-01-08T11:42:53.839Z,13.57
2023-01-08T11:45:39.088Z,13.60
2023-01-08T11:48:08.907Z,12.90
2023-01-08T11:50:38.776Z,14.07
2023-01-08T11:53:37.469Z,13.30
2023-01-08T11:56:04.390Z,13.37
2023-01-08T11:58:54.214Z,14.53
2023-01-08T12:01:32.544Z,14.57
2023-01-08T12:04:42.658Z,14.90
2023-01-08T12:07:57.066Z,15.03
2023-01-08T12:10:45.880Z,14.73
2023-01-08T12:16:25.803Z,15.60
2023-01-08T12:18:58.560Z,16.10
2023-01-08T12:21:47.531Z,15.67
2023-01-08T12:24:37.993Z,15.03
2023-01-08T12:27:14.136Z,15.83
2023-01-08T12:29:53.674Z,15.47
2023-01-08T12:32:47.973Z,15.67
2023-01-08T12:36:22.172Z,15.00
2023-01-08T12:43:01.019Z,14.67
2023-01-08T12:45:42.021Z,15.57
2023-01-08T12:48:18.604Z,14.97
2023-01-08T12:50:51.619Z,14.97
2023-01-08T12:53:24.481Z,14.67
2023-01-08T12:56:19.795Z,14.77
2023-01-08T12:59:05.048Z,14.77
2023-01-08T13:04:50.907Z,14.70
2023-01-08T13:07:27.851Z,16.50
2023-01-08T13:10:03.265Z,14.87
2023-01-08T13:12:40.130Z,15.00
2023-01-08T13:15:22.489Z,16.13
2023-01-08T13:17:57.356Z,15.37
2023-01-08T13:20:29.524Z,15.47
2023-01-08T13:23:02.127Z,16.33
2023-01-08T13:25:35.071Z,15.77
2023-01-08T13:28:18.460Z,15.50
2023-01-08T13:30:49.164Z,16.03
2023-01-08T13:33:38.283Z,16.87
2023-01-08T13:36:22.357Z,15.73
2023-01-08T13:39:18.653Z,15.67
2023-01-08T13:42:21.173Z,16.57
2023-01-08T13:44:54.735Z,15.47
2023-01-08T13:47:36.554Z,16.67
2023-01-08T13:50:18.091Z,15.90
2023-01-08T13:52:48.977Z,17.47
2023-01-08T13:55:38.597Z,16.43
2023-01-08T13:58:13.386Z,16.83
2023-01-08T14:00:43.314Z,16.17
2023-01-08T14:03:46.594Z,16.83
2023-01-08T14:06:18.852Z,16.77
2023-01-08T14:08:55.509Z,15.53
2023-01-08T14:11:43.138Z,17.37
2023-01-08T14:14:18.678Z,16.60
2023-01-08T14:16:47.701Z,16.77
2023-01-08T14:19:19.478Z,17.70
2023-01-08T14:21:54.882Z,17.50
2023-01-08T14:24:25.200Z,18.30
2023-01-08T14:26:57.374Z,16.97
2023-01-08T14:29:33.027Z,17.80
2023-01-08T14:32:01.174Z,17.07
2023-01-08T14:34:30.972Z,17.27
2023-01-08T14:36:58.296Z,17.73
2023-01-08T14:39:33.090Z,17.03
2023-01-08T14:42:32.923Z,17.30
2023-01-08T14:45:14.911Z,16.70
2023-01-08T14:47:48.796Z,16.00
2023-01-08T14:50:29.340Z,17.00
2023-01-08T14:53:15.346Z,16.73
2023-01-08T14:55:45.465Z,16.07
2023-01-08T14:58:23.432Z,16.53
2023-01-08T15:01:02.944Z,16.47
2023-01-08T15:03:36.798Z,16.57
2023-01-08T15:06:05.065Z,16.50
2023-01-08T15:08:43.616Z,17.60
2023-01-08T15:11:19.657Z,17.60
2023-01-08T15:13:48.437Z,17.60
2023-01-08T15:16:29.716Z,17.27
2023-01-08T15:19:11.776Z,16.50
2023-01-08T15:21:39.633Z,17.13
2023-01-08T15:24:07.712Z,17.20
2023-01-08T15:26:34.727Z,17.17
2023-01-08T15:29:06.313Z,17.10
2023-01-08T15:31:56.118Z,15.63
2023-01-08T15:34:23.147Z,17.20
2023-01-08T15:36:50.053Z,17.07
2023-01-08T15:39:17.001Z,17.77
2023-01-08T15:42:02.289Z,17.43
2023-01-08T15:44:29.129Z,17.50
2023-01-08T15:46:56.094Z,18.33
2023-01-08T15:49:22.986Z,16.93
2023-01-08T15:51:51.992Z,18.33
2023-01-08T15:54:20.732Z,17.73
2023-01-08T15:56:47.882Z,17.97
2023-01-08T15:59:14.716Z,17.07
2023-01-08T16:01:41.848Z,17.80
2023-01-08T16:04:08.885Z,17.63
2023-01-08T16:06:36.400Z,16.30
2023-01-08T16:09:03.647Z,17.10
2023-01-08T16:11:30.574Z,17.47
2023-01-08T16:13:57.736Z,17.07
2023-01-08T16:16:24.770Z,18.20
2023-01-08T16:18:52.768Z,18.27
2023-01-08T16:21:19.741Z,17.77
2023-01-08T16:23:46.684Z,17.07
2023-01-08T16:26:16.203Z,18.63
2023-01-08T16:28:43.264Z,18.03
2023-01-08T16:31:10.972Z,17.47
2023-01-08T16:33:38.339Z,18.07
2023-01-08T16:36:09.187Z,18.67
2023-01-08T16:38:36.744Z,17.93
2023-01-08T16:41:05.207Z,18.77
2023-01-08T16:43:40.227Z,18.10
2023-01-08T16:46:18.010Z,19.13
2023-01-08T16:48:46.843Z,18.10
2023-01-08T16:51:14.983Z,18.60
2023-01-08T16:53:42.341Z,17.97
2023-01-08T16:56:10.041Z,18.70
2023-01-08T16:58:39.476Z,17.87
2023-01-08T17:01:10.610Z,17.67
2023-01-08T17:03:37.996Z,18.77
2023-01-08T17:06:12.710Z,17.47
2023-01-08T17:08:41.406Z,17.73
2023-01-08T17:11:13.919Z,18.00
2023-01-08T17:13:41.145Z,18.60
2023-01-08T17:16:14.042Z,18.47
2023-01-08T17:18:41.347Z,18.60
2023-01-08T17:21:10.111Z,17.47
2023-01-08T17:23:40.351Z,17.43
2023-01-08T17:26:13.985Z,18.53
2023-01-08T17:28:42.253Z,17.77
2023-01-08T17:31:18.359Z,17.97
2023-01-08T17:33:54.630Z,17.53
2023-01-08T17:36:26.620Z,18.10
2023-01-08T17:39:01.050Z,17.87
2023-01-08T17:42:04.929Z,17.37
2023-01-08T17:45:09.295Z,17.97
2023-01-08T17:47:43.060Z,18.50
2023-01-08T17:50:23.423Z,18.77
2023-01-08T17:52:52.839Z,18.77
2023-01-08T17:56:32.827Z,18.83
2023-01-08T18:02:36.595Z,18.33
2023-01-08T18:05:20.612Z,19.47
2023-01-08T18:07:54.065Z,18.20
2023-01-08T18:10:28.188Z,19.13
2023-01-08T18:12:55.116Z,18.60
2023-01-08T18:15:25.265Z,19.07
2023-01-08T18:18:14.300Z,18.90
2023-01-08T18:21:27.829Z,19.00
2023-01-08T18:24:38.459Z,18.37
2023-01-08T18:27:07.793Z,18.60
2023-01-08T18:29:34.799Z,18.73
2023-01-08T18:32:04.144Z,17.87
2023-01-08T18:34:54.444Z,18.87
2023-01-08T18:37:34.411Z,18.63
2023-01-08T18:40:04.594Z,19.13
2023-01-08T18:42:59.612Z,18.33
2023-01-08T18:45:35.439Z,18.67
2023-01-08T18:48:02.826Z,19.53
2023-01-08T18:50:30.163Z,19.93
2023-01-08T18:52:57.118Z,19.80
2023-01-08T18:55:26.278Z,19.67
2023-01-08T18:58:01.562Z,19.80
2023-01-08T19:00:37.429Z,20.00
2023-01-08T19:03:12.482Z,19.37
2023-01-08T19:06:14.070Z,19.83
2023-01-08T19:08:56.243Z,20.03
2023-01-08T19:11:40.101Z,19.30
2023-01-08T19:14:07.222Z,19.53
2023-01-08T19:16:43.682Z,19.63
2023-01-08T19:19:10.737Z,20.07
2023-01-08T19:21:37.878Z,20.07
2023-01-08T19:24:05.226Z,20.27
2023-01-08T19:26:32.175Z,20.90
2023-01-08T19:28:59.203Z,20.17
2023-01-08T19:31:26.225Z,21.23
2023-01-08T19:33:53.491Z,20.20
2023-01-08T19:36:21.183Z,20.67
2023-01-08T19:38:48.215Z,20.87
2023-01-08T19:41:33.564Z,19.60
2023-01-08T19:44:00.682Z,21.03
2023-01-08T19:46:28.443Z,20.53
2023-01-08T19:48:59.553Z,19.83
2023-01-08T19:51:26.929Z,20.90
2023-01-08T19:53:55.409Z,20.77
2023-01-08T19:56:22.749Z,21.07
2023-01-08T19:58:49.998Z,21.07
2023-01-08T20:01:22.482Z,21.63
2023-01-08T20:03:49.452Z,20.43
2023-01-08T20:06:19.974Z,21.13
2023-01-08T20:08:48.359Z,20.63
2023-01-08T20:11:19.324Z,20.80
2023-01-08T20:13:46.328Z,20.67
2023-01-08T20:16:16.370Z,21.50
2023-01-08T20:18:43.974Z,20.83
2023-01-08T20:21:15.434Z,22.03
2023-01-08T20:23:44.323Z,22.53
2023-01-08T20:26:14.662Z,22.30
2023-01-08T20:28:42.653Z,22.17
2023-01-08T20:31:15.296Z,24.07
2023-01-08T20:33:43.000Z,22.23
2023-01-08T20:36:18.064Z,21.37
2023-01-08T20:38:47.638Z,21.20
2023-01-08T20:41:14.963Z,22.90
2023-01-08T20:43:42.293Z,23.67
2023-01-08T20:46:10.449Z,23.43
2023-01-08T20:48:46.848Z,22.73
2023-01-08T20:51:18.915Z,22.83
2023-01-08T20:54:01.987Z,21.90
2023-01-08T20:56:32.171Z,22.47
2023-01-08T20:59:12.112Z,21.87
2023-01-08T21:01:41.252Z,22.67
2023-01-08T21:04:09.806Z,22.77
2023-01-08T21:06:36.794Z,23.33
2023-01-08T21:09:09.808Z,23.50
2023-01-08T21:11:39.007Z,23.00
2023-01-08T21:14:08.095Z,23.53
2023-01-08T21:16:36.545Z,23.00
2023-01-08T21:19:03.677Z,22.93
2023-01-08T21:21:33.932Z,23.53
2023-01-08T21:24:04.509Z,22.80
2023-01-08T21:26:33.932Z,23.30
2023-01-08T21:29:06.287Z,23.40
2023-01-08T21:31:33.744Z,22.83
2023-01-08T21:34:01.553Z,22.83
2023-01-08T21:36:31.395Z,24.70
2023-01-08T21:39:00.101Z,23.33
2023-01-08T21:41:47.100Z,23.97
2023-01-08T21:44:34.931Z,21.70
2023-01-08T21:47:03.543Z,23.10
2023-01-08T21:49:31.798Z,23.53
2023-01-08T21:52:17.660Z,23.13
2023-01-08T21:54:44.492Z,23.10
2023-01-08T21:57:14.468Z,22.30
2023-01-08T21:59:41.349Z,23.10
2023-01-08T22:02:14.084Z,23.33
2023-01-08T22:04:41.077Z,22.80
2023-01-08T22:07:08.017Z,23.57
2023-01-08T22:09:34.958Z,24.17
2023-01-08T22:12:01.836Z,22.77
2023-01-08T22:14:28.658Z,22.53
2023-01-08T22:16:57.712Z,23.17
2023-01-08T22:19:26.714Z,24.33
2023-01-08T22:21:53.545Z,22.60
2023-01-08T22:24:20.380Z,23.37
2023-01-08T22:26:48.667Z,22.07
2023-01-08T22:29:15.511Z,22.80
2023-01-08T22:31:42.443Z,23.27
2023-01-08T22:34:14.829Z,22.97
2023-01-08T22:36:53.643Z,22.47
2023-01-08T22:39:20.456Z,22.20
2023-01-08T22:41:47.350Z,22.67
2023-01-08T22:44:14.983Z,22.87
2023-01-08T22:46:50.549Z,22.77
2023-01-08T22:49:30.461Z,22.83
2023-01-08T22:52:00.515Z,22.87
2023-01-08T22:54:32.194Z,23.40
2023-01-08T22:57:02.537Z,22.77
2023-01-08T22:59:29.469Z,23.97
2023-01-08T23:01:56.557Z,23.37
2023-01-08T23:04:25.842Z,23.33
2023-01-08T23:06:52.934Z,22.53
2023-01-08T23:09:32.025Z,23.80
2023-01-08T23:12:01.646Z,24.07
2023-01-08T23:14:28.669Z,23.33
2023-01-08T23:16:55.485Z,23.00
2023-01-08T23:19:22.313Z,23.70
2023-01-08T23:21:52.218Z,23.27
2023-01-08T23:24:19.387Z,23.53
2023-01-08T23:26:46.336Z,23.43
2023-01-08T23:29:13.191Z,23.10
2023-01-08T23:31:40.471Z,23.97
2023-01-08T23:34:09.865Z,23.27
2023-01-08T23:36:36.814Z,23.40
2023-01-08T23:39:04.546Z,22.07
2023-01-08T23:41:35.084Z,22.57
2023-01-08T23:44:05.586Z,23.50
2023-01-08T23:46:32.827Z,21.60
2023-01-08T23:48:59.685Z,22.23
2023-01-08T23:51:31.932Z,21.97
2023-01-08T23:54:02.173Z,22.27
2023-01-08T23:56:32.264Z,21.10
2023-01-08T23:59:02.256Z,22.43
